createdAt,value
2019-01-22T00:00:25.115Z,11.85
2019-01-22T00:02:55.648Z,13.80
2019-01-22T00:05:27.652Z,11.95
2019-01-22T00:07:58.535Z,16.95
2019-01-22T00:10:27.358Z,17.37
2019-01-22T00:12:56.722Z,12.60
2019-01-22T00:15:28.879Z,13.58
2019-01-22T00:17:57.697Z,16.37
2019-01-22T00:20:26.430Z,14.35
2019-01-22T00:23:02.805Z,14.25
2019-01-22T00:25:28.755Z,14.90
2019-01-22T00:27:58.906Z,15.30
2019-01-22T00:30:28.171Z,14.68
2019-01-22T00:32:57.036Z,15.00
2019-01-22T00:35:26.234Z,12.53
2019-01-22T00:37:55.161Z,12.45
2019-01-22T00:40:24.244Z,13.85
2019-01-22T00:42:53.544Z,14.33
2019-01-22T00:45:22.506Z,11.70
2019-01-22T00:47:51.373Z,12.13
2019-01-22T00:50:20.766Z,16.42
2019-01-22T00:52:49.584Z,13.75
2019-01-22T00:55:19.261Z,13.68
2019-01-22T00:57:49.585Z,16.15
2019-01-22T01:00:29.659Z,15.13
2019-01-22T01:03:01.966Z,19.07
2019-01-22T01:05:31.518Z,21.05
2019-01-22T01:08:16.987Z,15.10
2019-01-22T01:10:52.415Z,16.00
2019-01-22T01:13:26.526Z,16.65
2019-01-22T01:15:58.990Z,15.88
2019-01-22T01:18:33.459Z,16.93
2019-01-22T01:21:06.454Z,21.10
2019-01-22T01:23:50.012Z,16.32
2019-01-22T01:26:28.665Z,17.20
2019-01-22T01:29:01.703Z,13.90
2019-01-22T01:31:40.869Z,17.25
2019-01-22T01:34:21.188Z,17.75
2019-01-22T01:36:44.121Z,14.07
2019-01-22T01:39:12.839Z,14.98
2019-01-22T01:41:41.691Z,14.45
2019-01-22T01:44:10.581Z,17.45
2019-01-22T01:46:39.674Z,16.65
2019-01-22T01:49:11.176Z,17.62
2019-01-22T01:51:39.952Z,16.55
2019-01-22T01:54:08.796Z,16.25
2019-01-22T01:56:37.533Z,22.07
2019-01-22T01:59:07.173Z,18.42
2019-01-22T02:01:35.988Z,19.37
2019-01-22T02:04:04.721Z,18.60
2019-01-22T02:06:33.616Z,19.10
2019-01-22T02:09:02.401Z,19.02
2019-01-22T02:11:31.235Z,21.23
2019-01-22T02:14:00.315Z,23.27
2019-01-22T02:16:34.926Z,21.48
2019-01-22T02:19:09.350Z,22.15
2019-01-22T02:22:08.403Z,18.87
2019-01-22T02:24:42.791Z,20.05
2019-01-22T02:27:29.103Z,19.35
2019-01-22T02:30:09.316Z,20.37
2019-01-22T02:32:42.829Z,21.60
2019-01-22T02:35:17.151Z,23.62
2019-01-22T02:37:58.498Z,23.73
2019-01-22T02:40:39.248Z,27.00
2019-01-22T02:43:36.630Z,22.62
2019-01-22T02:46:28.548Z,24.35
2019-01-22T02:49:18.264Z,27.17
2019-01-22T02:51:50.078Z,24.85
2019-01-22T02:54:19.505Z,24.02
2019-01-22T02:57:10.388Z,28.10
2019-01-22T03:00:01.838Z,24.92
2019-01-22T03:03:01.801Z,30.20
2019-01-22T03:05:37.045Z,30.15
2019-01-22T03:08:24.938Z,27.87
2019-01-22T03:11:01.864Z,29.67
2019-01-22T03:13:43.639Z,25.60
2019-01-22T03:16:51.306Z,33.05
2019-01-22T03:19:34.975Z,27.90
2019-01-22T03:22:16.281Z,25.52
2019-01-22T03:24:54.108Z,30.68
2019-01-22T03:27:45.638Z,25.52
2019-01-22T03:30:23.697Z,29.98
2019-01-22T03:32:58.561Z,27.82
2019-01-22T03:35:56.543Z,27.67
2019-01-22T03:38:37.059Z,24.80
2019-01-22T03:41:09.780Z,29.48
2019-01-22T03:43:47.393Z,29.35
2019-01-22T03:46:28.063Z,29.20
2019-01-22T03:48:59.841Z,28.85
2019-01-22T03:51:31.635Z,25.75
2019-01-22T03:54:06.335Z,23.95
2019-01-22T03:57:11.427Z,30.15
2019-01-22T03:59:40.221Z,31.17
2019-01-22T04:02:09.435Z,29.00
2019-01-22T04:04:38.389Z,30.23
2019-01-22T04:07:07.182Z,30.10
2019-01-22T04:09:36.626Z,28.40
2019-01-22T04:12:05.428Z,29.05
2019-01-22T04:14:34.376Z,25.70
2019-01-22T04:17:03.248Z,32.03
2019-01-22T04:19:31.973Z,30.02
2019-01-22T04:22:00.788Z,32.13
2019-01-22T04:24:53.793Z,30.65
2019-01-22T04:27:31.425Z,25.90
2019-01-22T04:30:14.904Z,32.15
2019-01-22T04:32:46.651Z,32.38
2019-01-22T04:35:33.545Z,31.68
2019-01-22T04:38:07.156Z,28.90
2019-01-22T04:40:50.950Z,38.92
2019-01-22T04:43:40.656Z,31.00
2019-01-22T04:46:12.384Z,29.30
2019-01-22T04:48:57.115Z,35.33
2019-01-22T04:51:43.041Z,37.13
2019-01-22T04:54:27.484Z,32.30
2019-01-22T04:57:14.021Z,38.13
2019-01-22T05:00:13.474Z,31.17
2019-01-22T05:02:47.776Z,32.60
2019-01-22T05:05:44.219Z,33.08
2019-01-22T05:08:35.808Z,33.25
2019-01-22T05:11:23.118Z,34.65
2019-01-22T05:14:00.850Z,32.58
2019-01-22T05:16:54.779Z,31.60
2019-01-22T05:19:35.890Z,35.25
2019-01-22T05:22:10.379Z,32.08
2019-01-22T05:24:42.141Z,35.20
2019-01-22T05:27:38.220Z,39.65
2019-01-22T05:30:18.701Z,30.77
2019-01-22T05:33:25.299Z,34.63
2019-01-22T05:36:14.969Z,35.10
2019-01-22T05:39:08.689Z,35.48
2019-01-22T05:41:43.055Z,32.25
2019-01-22T05:44:43.372Z,33.35
2019-01-22T05:47:27.085Z,33.88
2019-01-22T05:50:09.679Z,32.40
2019-01-22T05:53:07.187Z,34.63
2019-01-22T05:55:54.795Z,30.05
2019-01-22T05:58:47.808Z,34.30
2019-01-22T06:01:22.744Z,33.48
2019-01-22T06:04:00.615Z,32.75
2019-01-22T06:06:32.979Z,30.27
2019-01-22T06:09:06.249Z,31.82
2019-01-22T06:15:26.972Z,33.13
2019-01-22T06:18:03.166Z,28.73
2019-01-22T06:21:02.323Z,30.40
2019-01-22T06:23:58.309Z,33.48
2019-01-22T06:26:45.778Z,33.65
2019-01-22T06:29:56.093Z,26.27
2019-01-22T06:32:43.362Z,30.05
2019-01-22T06:35:22.167Z,37.50
2019-01-22T06:38:33.319Z,33.50
2019-01-22T06:41:14.572Z,41.02
2019-01-22T06:43:57.988Z,30.65
2019-01-22T06:46:42.033Z,31.05
2019-01-22T06:49:25.019Z,29.75
2019-01-22T06:52:10.474Z,33.92
2019-01-22T06:54:56.330Z,32.65
2019-01-22T06:57:46.953Z,34.35
2019-01-22T07:00:41.674Z,28.57
2019-01-22T07:03:45.261Z,44.90
2019-01-22T07:06:34.354Z,33.58
2019-01-22T07:09:27.128Z,41.28
2019-01-22T07:12:16.286Z,36.45
2019-01-22T07:15:04.940Z,29.12
2019-01-22T07:17:44.502Z,35.52
2019-01-22T07:20:42.877Z,35.15
2019-01-22T07:23:21.384Z,35.55
2019-01-22T07:26:10.954Z,36.73
2019-01-22T07:28:50.919Z,39.00
2019-01-22T07:31:28.869Z,37.20
2019-01-22T07:34:18.591Z,40.12
2019-01-22T07:37:11.301Z,38.20
2019-01-22T07:39:55.831Z,37.80
2019-01-22T07:42:33.929Z,34.13
2019-01-22T07:45:17.499Z,41.02
2019-01-22T07:47:55.662Z,37.08
2019-01-22T07:50:38.181Z,34.35
2019-01-22T07:53:26.792Z,35.65
2019-01-22T07:56:24.485Z,35.00
2019-01-22T07:58:59.585Z,40.12
2019-01-22T08:01:32.309Z,40.30
2019-01-22T08:04:17.136Z,34.85
2019-01-22T08:07:15.379Z,37.95
2019-01-22T08:10:13.955Z,40.55
2019-01-22T08:13:15.409Z,43.30
2019-01-22T08:15:53.567Z,36.03
2019-01-22T08:18:46.452Z,38.08
2019-01-22T08:21:33.723Z,39.10
2019-01-22T08:24:14.418Z,42.60
2019-01-22T08:27:02.734Z,42.20
2019-01-22T08:29:45.058Z,40.70
2019-01-22T08:32:45.513Z,36.53
2019-01-22T08:35:28.409Z,41.28
2019-01-22T08:38:13.240Z,37.15
2019-01-22T08:41:06.697Z,43.28
2019-01-22T08:44:07.342Z,41.77
2019-01-22T08:46:45.138Z,47.27
2019-01-22T08:49:18.625Z,40.40
2019-01-22T08:51:53.547Z,48.10
2019-01-22T08:54:38.368Z,43.28
2019-01-22T08:57:16.889Z,41.40
2019-01-22T09:00:17.076Z,42.15
2019-01-22T09:03:02.737Z,44.35
2019-01-22T09:05:38.657Z,36.10
2019-01-22T09:08:14.243Z,35.80
2019-01-22T09:10:57.813Z,38.95
2019-01-22T09:14:02.092Z,44.25
2019-01-22T09:16:53.620Z,41.85
2019-01-22T09:19:43.863Z,42.78
2019-01-22T09:22:26.522Z,41.75
2019-01-22T09:25:06.654Z,41.35
2019-01-22T09:27:48.421Z,48.30
2019-01-22T09:30:33.334Z,39.95
2019-01-22T09:33:13.027Z,45.63
2019-01-22T09:36:04.868Z,45.45
2019-01-22T09:38:40.976Z,38.88
2019-01-22T09:41:11.695Z,47.35
2019-01-22T09:43:44.939Z,44.77
2019-01-22T09:46:18.161Z,43.50
2019-01-22T09:48:51.077Z,42.23
2019-01-22T09:51:24.677Z,45.40
2019-01-22T09:53:53.783Z,48.23
2019-01-22T09:56:23.892Z,48.23
2019-01-22T09:58:58.123Z,47.48
2019-01-22T10:01:30.342Z,45.45
2019-01-22T10:04:03.497Z,48.98
2019-01-22T10:06:38.943Z,46.55
2019-01-22T10:09:13.501Z,45.15
2019-01-22T10:11:45.707Z,44.23
2019-01-22T10:14:23.458Z,49.40
2019-01-22T10:16:54.558Z,42.55
2019-01-22T10:19:28.258Z,46.83
2019-01-22T10:22:02.968Z,46.95
2019-01-22T10:24:35.951Z,40.52
2019-01-22T10:27:14.881Z,47.58
2019-01-22T10:29:45.604Z,44.48
2019-01-22T10:32:15.984Z,47.17
2019-01-22T10:34:46.776Z,40.90
2019-01-22T10:37:17.325Z,46.28
2019-01-22T10:39:48.973Z,43.45
2019-01-22T10:42:25.888Z,39.45
2019-01-22T10:44:56.884Z,42.55
2019-01-22T10:47:32.208Z,37.17
2019-01-22T10:50:04.457Z,40.05
2019-01-22T10:52:38.880Z,48.13
2019-01-22T10:55:16.673Z,38.67
2019-01-22T10:58:01.790Z,42.38
2019-01-22T11:00:33.990Z,43.02
2019-01-22T11:03:06.897Z,36.73
2019-01-22T11:05:39.056Z,36.25
2019-01-22T11:08:10.304Z,44.10
2019-01-22T11:10:55.465Z,41.55
2019-01-22T11:13:28.961Z,47.48
2019-01-22T11:16:00.001Z,44.30
2019-01-22T11:18:40.127Z,41.70
2019-01-22T11:21:14.684Z,50.35
2019-01-22T11:23:45.626Z,49.65
2019-01-22T11:26:24.052Z,44.42
2019-01-22T11:29:46.227Z,47.45
2019-01-22T11:32:19.583Z,45.35
2019-01-22T11:35:20.113Z,41.92
2019-01-22T11:38:00.678Z,45.78
2019-01-22T11:41:24.113Z,51.02
2019-01-22T11:44:01.909Z,48.83
2019-01-22T11:47:18.102Z,47.43
2019-01-22T11:49:52.305Z,48.15
2019-01-22T11:53:04.699Z,50.98
2019-01-22T11:55:33.339Z,51.83
2019-01-22T11:58:53.118Z,48.42
2019-01-22T12:01:39.172Z,42.33
2019-01-22T12:05:01.979Z,52.05
2019-01-22T12:07:33.511Z,40.00
2019-01-22T12:10:36.620Z,45.12
2019-01-22T12:13:19.177Z,47.90
2019-01-22T12:16:45.429Z,45.67
2019-01-22T12:19:28.795Z,52.33
2019-01-22T12:28:53.717Z,44.73
2019-01-22T12:31:22.820Z,39.15
2019-01-22T12:34:28.231Z,40.50
2019-01-22T12:36:57.184Z,37.83
2019-01-22T12:40:26.079Z,33.98
2019-01-22T12:42:56.102Z,37.80
2019-01-22T12:45:51.901Z,36.93
2019-01-22T12:48:28.657Z,35.35
2019-01-22T12:51:57.690Z,34.40
2019-01-22T12:54:28.738Z,41.10
2019-01-22T12:57:27.910Z,35.43
2019-01-22T12:59:59.534Z,43.42
2019-01-22T13:03:13.299Z,46.58
2019-01-22T13:05:52.059Z,41.30
2019-01-22T13:09:12.156Z,34.95
2019-01-22T13:11:46.979Z,35.78
2019-01-22T13:15:00.999Z,36.30
2019-01-22T13:17:30.665Z,43.15
2019-01-22T13:20:51.849Z,40.95
2019-01-22T13:23:21.160Z,39.30
2019-01-22T13:26:28.887Z,39.63
2019-01-22T13:29:03.866Z,51.90
2019-01-22T13:31:47.888Z,42.65
2019-01-22T13:34:21.895Z,42.80
2019-01-22T13:37:27.212Z,40.70
2019-01-22T13:39:59.436Z,46.63
2019-01-22T13:43:02.611Z,37.45
2019-01-22T13:45:49.416Z,41.00
2019-01-22T13:49:13.639Z,45.25
2019-01-22T13:51:43.956Z,43.23
2019-01-22T13:55:03.329Z,39.18
2019-01-22T13:57:50.384Z,44.20
2019-01-22T14:01:11.930Z,44.20
2019-01-22T14:03:45.794Z,38.40
2019-01-22T14:13:23.838Z,36.70
2019-01-22T14:16:20.578Z,42.88
2019-01-22T14:18:55.780Z,41.53
2019-01-22T14:21:28.712Z,38.67
2019-01-22T14:24:00.072Z,34.88
2019-01-22T14:27:27.156Z,40.15
2019-01-22T14:30:13.933Z,34.83
2019-01-22T14:33:12.505Z,39.20
2019-01-22T14:35:42.330Z,41.37
2019-01-22T14:38:50.559Z,36.48
2019-01-22T14:41:20.414Z,31.85
2019-01-22T14:44:29.891Z,36.03
2019-01-22T14:47:06.328Z,38.25
2019-01-22T14:50:14.397Z,35.80
2019-01-22T14:52:50.544Z,37.28
2019-01-22T14:55:44.088Z,39.00
2019-01-22T14:58:10.854Z,38.55
2019-01-22T15:07:43.687Z,37.45
2019-01-22T15:10:17.271Z,35.58
2019-01-22T15:13:30.230Z,36.03
2019-01-22T15:16:16.649Z,35.48
2019-01-22T15:19:32.922Z,34.43
2019-01-22T15:22:18.320Z,36.23
2019-01-22T15:25:26.368Z,36.40
2019-01-22T15:28:09.016Z,36.65
2019-01-22T15:31:37.402Z,33.38
2019-01-22T15:34:06.297Z,38.10
2019-01-22T15:37:23.529Z,32.78
2019-01-22T15:39:56.375Z,33.38
2019-01-22T15:43:01.410Z,31.93
2019-01-22T15:45:35.162Z,30.72
2019-01-22T15:48:32.185Z,33.83
2019-01-22T15:51:07.891Z,31.45
2019-01-22T15:54:11.347Z,32.80
2019-01-22T15:56:48.698Z,31.07
2019-01-22T16:00:12.160Z,32.73
2019-01-22T16:02:46.841Z,34.25
2019-01-22T16:06:00.064Z,37.03
2019-01-22T16:08:36.968Z,36.73
2019-01-22T16:17:58.830Z,34.45
2019-01-22T16:20:33.234Z,36.75
2019-01-22T16:24:01.504Z,34.63
2019-01-22T16:26:32.607Z,42.53
2019-01-22T16:29:51.941Z,34.58
2019-01-22T16:32:24.600Z,34.90
2019-01-22T16:35:28.366Z,33.28
2019-01-22T16:38:00.346Z,45.78
2019-01-22T16:41:14.097Z,34.58
2019-01-22T16:43:47.867Z,33.80
2019-01-22T16:46:53.243Z,29.12
2019-01-22T16:49:26.821Z,36.38
2019-01-22T16:52:23.533Z,32.65
2019-01-22T16:54:57.000Z,35.03
2019-01-22T16:58:21.779Z,30.12
2019-01-22T17:00:55.550Z,35.25
2019-01-22T17:03:53.588Z,28.87
2019-01-22T17:06:16.920Z,39.85
2019-01-22T17:09:37.257Z,32.50
2019-01-22T17:12:11.133Z,33.95
2019-01-22T17:15:13.869Z,33.88
2019-01-22T17:18:01.114Z,35.58
2019-01-22T17:20:59.354Z,35.48
2019-01-22T17:23:30.536Z,31.93
2019-01-22T17:26:01.051Z,32.28
2019-01-22T17:28:37.306Z,32.55
2019-01-22T17:31:40.340Z,35.63
2019-01-22T17:34:10.953Z,32.83
2019-01-22T17:37:35.323Z,38.33
2019-01-22T17:40:19.106Z,33.85
2019-01-22T17:43:28.790Z,39.03
2019-01-22T17:46:14.704Z,34.48
2019-01-22T17:49:05.211Z,30.48
2019-01-22T17:51:36.464Z,36.35
2019-01-22T17:54:43.367Z,33.63
2019-01-22T17:57:15.478Z,36.53
2019-01-22T18:00:30.757Z,36.35
2019-01-22T18:03:10.831Z,33.65
2019-01-22T18:06:16.077Z,34.38
2019-01-22T18:08:47.325Z,37.08
2019-01-22T18:11:22.979Z,32.13
2019-01-22T18:14:00.682Z,39.88
2019-01-22T18:19:23.791Z,31.37
2019-01-22T18:24:49.680Z,36.38
2019-01-22T18:27:20.734Z,32.55
2019-01-22T18:30:43.339Z,30.95
2019-01-22T18:33:15.598Z,31.62
2019-01-22T18:35:49.671Z,30.68
2019-01-22T18:38:24.595Z,33.18
2019-01-22T18:41:00.025Z,34.33
2019-01-22T18:43:34.367Z,31.87
2019-01-22T18:46:06.516Z,32.25
2019-01-22T18:48:44.769Z,33.08
2019-01-22T18:54:29.464Z,28.90
2019-01-22T18:57:02.487Z,27.90
2019-01-22T19:00:32.635Z,34.78
2019-01-22T19:03:11.928Z,33.00
